sensor_id;sensor_type;location;lat;lon;timestamp;P1;durP1;ratioP1;P2;durP2;ratioP2
7883;SDS011;3987;51.458;7.238;2022-11-20T00:06:37;26.30;;;17.97;;
7883;SDS011;3987;51.458;7.238;2022-11-20T00:21:37;60.20;;;31.70;;
7883;SDS011;3987;51.458;7.238;2022-11-20T00:36:38;32.70;;;21.10;;
7883;SDS011;3987;51.458;7.238;2022-11-20T00:51:38;31.67;;;19.67;;
7883;SDS011;3987;51.458;7.238;2022-11-20T01:06:39;30.83;;;20.60;;
7883;SDS011;3987;51.458;7.238;2022-11-20T01:21:41;32.05;;;20.77;;
7883;SDS011;3987;51.458;7.238;2022-11-20T01:36:42;35.97;;;22.73;;
7883;SDS011;3987;51.458;7.238;2022-11-20T01:51:53;28.80;;;18.93;;
7883;SDS011;3987;51.458;7.238;2022-11-20T02:07:00;27.80;;;17.70;;
7883;SDS011;3987;51.458;7.238;2022-11-20T02:22:08;36.90;;;24.17;;
7883;SDS011;3987;51.458;7.238;2022-11-20T02:37:14;30.93;;;20.77;;
7883;SDS011;3987;51.458;7.238;2022-11-20T02:52:15;26.53;;;19.80;;
7883;SDS011;3987;51.458;7.238;2022-11-20T03:07:16;32.23;;;20.73;;
7883;SDS011;3987;51.458;7.238;2022-11-20T03:22:16;27.63;;;17.80;;
7883;SDS011;3987;51.458;7.238;2022-11-20T03:37:17;25.73;;;17.50;;
7883;SDS011;3987;51.458;7.238;2022-11-20T03:52:17;25.87;;;18.03;;
7883;SDS011;3987;51.458;7.238;2022-11-20T04:07:17;23.73;;;17.77;;
7883;SDS011;3987;51.458;7.238;2022-11-20T04:22:18;24.27;;;17.37;;
7883;SDS011;3987;51.458;7.238;2022-11-20T04:37:18;24.67;;;16.80;;
7883;SDS011;3987;51.458;7.238;2022-11-20T04:52:19;21.27;;;16.73;;
7883;SDS011;3987;51.458;7.238;2022-11-20T05:07:19;23.60;;;16.97;;
7883;SDS011;3987;51.458;7.238;2022-11-20T05:22:19;24.13;;;17.57;;
7883;SDS011;3987;51.458;7.238;2022-11-20T05:37:20;22.90;;;16.77;;
7883;SDS011;3987;51.458;7.238;2022-11-20T05:52:20;21.27;;;17.50;;
7883;SDS011;3987;51.458;7.238;2022-11-20T06:07:21;24.63;;;18.97;;
7883;SDS011;3987;51.458;7.238;2022-11-20T06:22:21;23.00;;;16.60;;
7883;SDS011;3987;51.458;7.238;2022-11-20T06:37:22;19.90;;;15.70;;
7883;SDS011;3987;51.458;7.238;2022-11-20T06:52:22;18.63;;;15.20;;
7883;SDS011;3987;51.458;7.238;2022-11-20T07:07:22;17.57;;;14.83;;
7883;SDS011;3987;51.458;7.238;2022-11-20T07:22:23;18.47;;;14.77;;
7883;SDS011;3987;51.458;7.238;2022-11-20T07:37:23;23.77;;;15.57;;
7883;SDS011;3987;51.458;7.238;2022-11-20T07:52:24;23.33;;;20.83;;
7883;SDS011;3987;51.458;7.238;2022-11-20T08:07:24;23.30;;;16.50;;
7883;SDS011;3987;51.458;7.238;2022-11-20T08:22:24;24.40;;;17.73;;
7883;SDS011;3987;51.458;7.238;2022-11-20T08:37:25;27.65;;;23.95;;
7883;SDS011;3987;51.458;7.238;2022-11-20T09:01:03;32.40;;;21.77;;
7883;SDS011;3987;51.458;7.238;2022-11-20T09:16:05;32.13;;;20.90;;
7883;SDS011;3987;51.458;7.238;2022-11-20T09:47:13;21.90;;;16.10;;
7883;SDS011;3987;51.458;7.238;2022-11-20T10:32:54;12.27;;;11.07;;
7883;SDS011;3987;51.458;7.238;2022-11-20T11:03:27;12.80;;;11.00;;
7883;SDS011;3987;51.458;7.238;2022-11-20T11:18:30;11.40;;;9.70;;
7883;SDS011;3987;51.458;7.238;2022-11-20T11:33:33;10.43;;;9.43;;
7883;SDS011;3987;51.458;7.238;2022-11-20T11:48:34;9.93;;;8.87;;
7883;SDS011;3987;51.458;7.238;2022-11-20T12:03:38;10.03;;;9.07;;
7883;SDS011;3987;51.458;7.238;2022-11-20T12:18:41;10.30;;;9.33;;
7883;SDS011;3987;51.458;7.238;2022-11-20T12:34:03;13.30;;;10.93;;
7883;SDS011;3987;51.458;7.238;2022-11-20T13:19:36;14.67;;;11.13;;
7883;SDS011;3987;51.458;7.238;2022-11-20T13:34:36;13.55;;;11.57;;
7883;SDS011;3987;51.458;7.238;2022-11-20T13:49:38;15.00;;;12.33;;
7883;SDS011;3987;51.458;7.238;2022-11-20T14:04:50;12.77;;;11.43;;
7883;SDS011;3987;51.458;7.238;2022-11-20T14:19:53;12.90;;;11.53;;
7883;SDS011;3987;51.458;7.238;2022-11-20T14:34:54;33.23;;;25.20;;
7883;SDS011;3987;51.458;7.238;2022-11-20T14:49:54;16.53;;;14.00;;
7883;SDS011;3987;51.458;7.238;2022-11-20T15:04:57;21.03;;;16.10;;
7883;SDS011;3987;51.458;7.238;2022-11-20T15:19:59;23.80;;;16.10;;
7883;SDS011;3987;51.458;7.238;2022-11-20T15:35:00;21.70;;;15.67;;
7883;SDS011;3987;51.458;7.238;2022-11-20T15:50:01;24.73;;;16.30;;
7883;SDS011;3987;51.458;7.238;2022-11-20T16:05:01;27.37;;;16.63;;
7883;SDS011;3987;51.458;7.238;2022-11-20T16:20:01;26.53;;;19.87;;
7883;SDS011;3987;51.458;7.238;2022-11-20T16:35:02;29.07;;;19.57;;
7883;SDS011;3987;51.458;7.238;2022-11-20T16:50:03;30.73;;;20.13;;
7883;SDS011;3987;51.458;7.238;2022-11-20T17:05:05;30.00;;;19.07;;
7883;SDS011;3987;51.458;7.238;2022-11-20T17:20:05;33.45;;;20.25;;
7883;SDS011;3987;51.458;7.238;2022-11-20T17:35:06;25.83;;;17.13;;
7883;SDS011;3987;51.458;7.238;2022-11-20T17:50:07;22.60;;;14.60;;
7883;SDS011;3987;51.458;7.238;2022-11-20T18:05:08;22.37;;;15.27;;
7883;SDS011;3987;51.458;7.238;2022-11-20T18:20:08;16.73;;;11.93;;
7883;SDS011;3987;51.458;7.238;2022-11-20T18:35:09;10.23;;;9.03;;
7883;SDS011;3987;51.458;7.238;2022-11-20T18:50:09;7.90;;;7.13;;
7883;SDS011;3987;51.458;7.238;2022-11-20T19:05:10;4.93;;;4.73;;
7883;SDS011;3987;51.458;7.238;2022-11-20T19:20:12;5.60;;;5.27;;
7883;SDS011;3987;51.458;7.238;2022-11-20T19:35:12;4.50;;;4.40;;
7883;SDS011;3987;51.458;7.238;2022-11-20T19:50:13;6.70;;;6.13;;
7883;SDS011;3987;51.458;7.238;2022-11-20T20:05:14;7.07;;;6.63;;
7883;SDS011;3987;51.458;7.238;2022-11-20T20:20:15;9.20;;;8.63;;
7883;SDS011;3987;51.458;7.238;2022-11-20T20:35:15;13.60;;;12.30;;
7883;SDS011;3987;51.458;7.238;2022-11-20T20:50:16;24.10;;;20.80;;
7883;SDS011;3987;51.458;7.238;2022-11-20T21:05:16;26.43;;;22.13;;
7883;SDS011;3987;51.458;7.238;2022-11-20T21:20:17;29.53;;;22.03;;
7883;SDS011;3987;51.458;7.238;2022-11-20T21:35:36;31.13;;;21.97;;
7883;SDS011;3987;51.458;7.238;2022-11-20T21:50:37;25.47;;;19.60;;
7883;SDS011;3987;51.458;7.238;2022-11-20T22:05:37;33.13;;;23.00;;
7883;SDS011;3987;51.458;7.238;2022-11-20T22:20:38;39.28;;;25.52;;
7883;SDS011;3987;51.458;7.238;2022-11-20T22:35:39;36.77;;;23.37;;
7883;SDS011;3987;51.458;7.238;2022-11-20T22:50:39;32.77;;;20.70;;
7883;SDS011;3987;51.458;7.238;2022-11-20T23:05:41;25.27;;;18.20;;
7883;SDS011;3987;51.458;7.238;2022-11-20T23:20:41;25.77;;;17.77;;
7883;SDS011;3987;51.458;7.238;2022-11-20T23:35:45;22.87;;;17.13;;
7883;SDS011;3987;51.458;7.238;2022-11-20T23:50:46;21.53;;;16.70;;
